Time;durP1;ratioP1;P1;durP2;ratioP2;P2;SDS_P1;SDS_P2;PMS_P1;PMS_P2;Temp;Humidity;BMP_temperature;BMP_pressure;BME280_temperature;BME280_humidity;BME280_pressure;Samples;Min_cycle;Max_cycle;Signal;HPM_P1;HPM_P2
2022/08/02 00:01:53;;;;;;;1.20;0.75;;;21.60;99.90;;;;;;5073493;28;20225;-55
2022/08/02 00:04:20;;;;;;;1.25;1.00;;;21.50;99.90;;;;;;5074067;28;20712;-55
2022/08/02 00:06:47;;;;;;;2.88;0.85;;;21.40;99.90;;;;;;5074115;28;20287;-54
2022/08/02 00:09:15;;;;;;;1.25;0.80;;;21.40;99.90;;;;;;5074201;28;20209;-55
2022/08/02 00:11:42;;;;;;;0.80;0.60;;;21.30;99.90;;;;;;5074009;28;20330;-55
2022/08/02 00:14:09;;;;;;;0.80;0.80;;;21.10;99.90;;;;;;5074001;28;20212;-54
2022/08/02 00:16:35;;;;;;;1.70;1.05;;;20.90;99.90;;;;;;5073654;28;20234;-54
2022/08/02 00:19:02;;;;;;;1.23;0.95;;;20.70;99.90;;;;;;5073825;28;20208;-56
2022/08/02 00:21:29;;;;;;;0.93;0.60;;;20.70;99.90;;;;;;5074006;28;20225;-55
2022/08/02 00:23:55;;;;;;;1.80;0.98;;;20.70;99.90;;;;;;5073796;28;20660;-56
2022/08/02 00:26:23;;;;;;;1.05;0.80;;;20.70;99.90;;;;;;5073346;28;20630;-55
2022/08/02 00:28:50;;;;;;;1.08;0.80;;;20.70;99.90;;;;;;5073674;28;20213;-55
2022/08/02 00:31:17;;;;;;;1.40;0.80;;;20.70;99.90;;;;;;5073443;28;20233;-54
2022/08/02 00:33:43;;;;;;;2.33;0.82;;;20.70;99.90;;;;;;5073637;28;20209;-55
2022/08/02 00:36:10;;;;;;;1.55;0.90;;;20.70;99.90;;;;;;5073406;28;20250;-55
2022/08/02 00:38:37;;;;;;;1.08;0.75;;;20.70;99.90;;;;;;5073639;28;20358;-54
2022/08/02 00:41:03;;;;;;;1.75;0.90;;;20.70;99.90;;;;;;5073250;28;20197;-55
2022/08/02 00:43:31;;;;;;;1.35;0.70;;;20.60;99.90;;;;;;5073545;28;20408;-55
2022/08/02 00:45:58;;;;;;;1.73;0.80;;;20.50;99.90;;;;;;5073103;28;20266;-54
2022/08/02 00:48:25;;;;;;;1.38;0.77;;;20.50;99.90;;;;;;5073542;28;20259;-56
2022/08/02 00:50:51;;;;;;;1.05;0.90;;;20.50;99.90;;;;;;5073298;28;20645;-55
2022/08/02 00:53:18;;;;;;;3.90;0.95;;;20.40;99.90;;;;;;5073241;28;20642;-55
2022/08/02 00:55:45;;;;;;;1.13;0.80;;;20.40;99.90;;;;;;5073003;28;20205;-56
2022/08/02 00:58:11;;;;;;;0.70;0.70;;;20.40;99.90;;;;;;5073236;28;20207;-55
2022/08/02 01:00:39;;;;;;;1.33;0.75;;;20.40;99.90;;;;;;5073071;28;20236;-55
2022/08/02 01:03:06;;;;;;;1.10;1.00;;;20.50;99.90;;;;;;5073147;28;20232;-55
2022/08/02 01:05:33;;;;;;;0.98;0.88;;;20.50;99.90;;;;;;5072968;28;20209;-55
2022/08/02 01:08:00;;;;;;;1.10;1.00;;;20.50;99.90;;;;;;5073032;28;20238;-55
2022/08/02 01:10:26;;;;;;;0.70;0.70;;;20.40;99.90;;;;;;5072930;28;20220;-55
2022/08/02 01:12:53;;;;;;;2.03;1.05;;;20.50;99.90;;;;;;5072356;28;20229;-56
2022/08/02 01:15:21;;;;;;;1.20;1.10;;;20.50;99.90;;;;;;5071994;28;20209;-55
2022/08/02 01:17:54;;;;;;;1.48;0.90;;;20.40;99.90;;;;;;5072896;28;20687;-55
2022/08/02 01:20:43;;;;;;;2.15;0.93;;;20.40;99.90;;;;;;5073168;28;20656;-55
2022/08/02 01:23:25;;;;;;;3.08;1.20;;;20.40;99.90;;;;;;5072733;28;20278;-56
2022/08/02 01:26:08;;;;;;;1.27;1.08;;;20.30;99.90;;;;;;5072641;28;20258;-55
2022/08/02 01:28:39;;;;;;;1.08;0.93;;;20.20;99.90;;;;;;5072755;28;20209;-55
2022/08/02 01:31:14;;;;;;;1.35;1.00;;;20.20;99.90;;;;;;5072510;28;20229;-55
2022/08/02 01:33:45;;;;;;;2.55;1.05;;;20.10;99.90;;;;;;5072476;28;20208;-55
2022/08/02 01:36:14;;;;;;;1.38;1.08;;;20.10;99.90;;;;;;5072135;28;20215;-56
2022/08/02 01:38:45;;;;;;;1.70;1.00;;;20.10;99.90;;;;;;5072515;28;20296;-55
2022/08/02 01:41:17;;;;;;;1.10;1.00;;;20.20;99.90;;;;;;5072414;28;20201;-56
2022/08/02 01:43:47;;;;;;;1.33;1.20;;;20.20;99.90;;;;;;5072402;28;20263;-56
2022/08/02 01:46:16;;;;;;;1.65;0.95;;;20.10;99.90;;;;;;5072161;28;20209;-56
2022/08/02 01:48:45;;;;;;;1.08;0.95;;;20.10;99.90;;;;;;5072136;28;20204;-55
2022/08/02 01:51:14;;;;;;;2.33;1.02;;;20.00;99.90;;;;;;5072020;28;20229;-55
2022/08/02 01:53:43;;;;;;;1.23;1.00;;;20.00;99.90;;;;;;5072175;28;20211;-55
2022/08/02 01:56:12;;;;;;;1.83;1.00;;;19.90;99.90;;;;;;5071802;28;20212;-55
2022/08/02 01:58:40;;;;;;;1.55;1.20;;;19.80;99.90;;;;;;5071936;28;20208;-55
2022/08/02 02:01:10;;;;;;;2.10;0.70;;;19.80;99.90;;;;;;5071879;28;20208;-55
2022/08/02 02:03:39;;;;;;;2.25;0.95;;;19.80;99.90;;;;;;5072220;28;20208;-55
2022/08/02 02:06:09;;;;;;;3.42;0.95;;;19.70;99.90;;;;;;5072381;28;20552;-54
2022/08/02 02:08:39;;;;;;;5.53;1.00;;;19.70;99.90;;;;;;5072059;28;20236;-55
2022/08/02 02:11:07;;;;;;;1.98;1.10;;;19.70;99.90;;;;;;5071876;28;20251;-55
2022/08/02 02:13:36;;;;;;;1.60;0.82;;;19.50;99.90;;;;;;5072308;28;20258;-55
2022/08/02 02:16:05;;;;;;;2.83;1.10;;;19.60;99.90;;;;;;5071741;28;20205;-55
2022/08/02 02:18:42;;;;;;;2.67;0.98;;;19.50;99.90;;;;;;5072069;28;20263;-55
2022/08/02 02:21:09;;;;;;;2.10;1.13;;;19.50;99.90;;;;;;5071826;28;20197;-56
2022/08/02 02:23:36;;;;;;;1.27;0.70;;;19.40;99.90;;;;;;5071936;28;20204;-56
2022/08/02 02:26:03;;;;;;;2.30;1.02;;;19.30;99.90;;;;;;5071111;28;20200;-55
2022/08/02 02:28:32;;;;;;;1.00;0.85;;;19.20;99.90;;;;;;5071994;28;20212;-55
2022/08/02 02:31:06;;;;;;;1.98;1.15;;;19.10;99.90;;;;;;5071687;28;20282;-55
2022/08/02 02:33:39;;;;;;;1.02;0.88;;;19.00;99.90;;;;;;5071570;28;20201;-55
2022/08/02 02:36:08;;;;;;;2.42;0.90;;;19.00;99.90;;;;;;5071393;28;20270;-55
2022/08/02 02:38:36;;;;;;;1.38;1.00;;;19.00;99.90;;;;;;5072001;28;20209;-55
2022/08/02 02:41:06;;;;;;;1.10;1.00;;;18.90;99.90;;;;;;5071489;28;20673;-54
2022/08/02 02:43:35;;;;;;;1.67;1.05;;;18.90;99.90;;;;;;5071520;28;20736;-54
2022/08/02 02:46:03;;;;;;;1.40;1.10;;;18.80;99.90;;;;;;5071719;28;20201;-54
2022/08/02 02:48:30;;;;;;;1.70;1.27;;;18.70;99.90;;;;;;5071489;28;20278;-55
2022/08/02 02:51:00;;;;;;;4.90;1.25;;;18.60;99.90;;;;;;5071371;28;20240;-54
2022/08/02 02:53:28;;;;;;;1.00;0.85;;;18.60;99.90;;;;;;5071437;28;20204;-54
2022/08/02 02:55:55;;;;;;;2.08;1.20;;;18.50;99.90;;;;;;5071214;28;20673;-54
2022/08/02 02:58:23;;;;;;;1.60;1.08;;;18.50;99.90;;;;;;5071450;28;20212;-54
2022/08/02 03:03:35;;;;;;;1.63;1.10;;;18.50;99.90;;;;;;5071274;28;20405;-55
2022/08/02 03:06:03;;;;;;;2.83;1.30;;;18.50;99.90;;;;;;5071257;28;20234;-54
2022/08/02 03:08:29;;;;;;;1.23;1.13;;;18.50;99.90;;;;;;5071475;28;20239;-54
2022/08/02 03:10:57;;;;;;;2.45;1.40;;;18.40;99.90;;;;;;5071387;28;20224;-55
2022/08/02 03:13:24;;;;;;;1.35;1.17;;;18.40;99.90;;;;;;5071265;28;20205;-54
2022/08/02 03:15:53;;;;;;;1.27;1.17;;;18.40;99.90;;;;;;5070850;28;20205;-55
2022/08/02 03:18:33;;;;;;;1.10;1.00;;;18.40;99.90;;;;;;5071383;28;20209;-54
2022/08/02 03:21:01;;;;;;;3.17;1.30;;;18.30;99.90;;;;;;5071284;28;20201;-54
2022/08/02 03:23:29;;;;;;;2.30;1.52;;;18.10;99.90;;;;;;5071244;28;20209;-54
2022/08/02 03:25:56;;;;;;;1.55;1.17;;;18.10;99.90;;;;;;5070967;28;20630;-56
2022/08/02 03:28:23;;;;;;;1.48;1.38;;;18.00;99.90;;;;;;5071015;28;20230;-54
2022/08/02 03:30:50;;;;;;;2.83;1.23;;;18.00;99.90;;;;;;5070971;28;20704;-54
2022/08/02 03:33:17;;;;;;;1.83;1.50;;;18.20;99.90;;;;;;5070904;28;20256;-55
2022/08/02 03:35:46;;;;;;;2.75;1.40;;;18.20;99.90;;;;;;5070825;28;20730;-55
2022/08/02 03:38:15;;;;;;;2.78;1.50;;;18.30;99.90;;;;;;5073592;28;20216;-55
2022/08/02 03:40:43;;;;;;;2.85;1.50;;;18.30;99.90;;;;;;5074576;28;20661;-55
2022/08/02 03:43:11;;;;;;;3.97;1.52;;;18.30;99.90;;;;;;5074907;28;20244;-54
2022/08/02 03:45:41;;;;;;;3.03;1.45;;;18.30;99.90;;;;;;5074648;28;20223;-55
2022/08/02 03:48:10;;;;;;;2.40;1.73;;;18.30;99.90;;;;;;5074613;28;20250;-54
2022/08/02 03:50:37;;;;;;;3.78;1.70;;;18.40;99.90;;;;;;5074796;28;20267;-60
2022/08/02 03:53:05;;;;;;;5.15;2.72;;;18.40;99.90;;;;;;5074714;28;20680;-56
2022/08/02 03:55:32;;;;;;;2.17;1.60;;;18.30;99.90;;;;;;5074061;28;20208;-54
2022/08/02 03:58:01;;;;;;;2.00;1.58;;;18.30;99.90;;;;;;5074548;28;20216;-54
2022/08/02 04:00:28;;;;;;;3.35;1.50;;;18.20;99.90;;;;;;5074532;28;20205;-55
2022/08/02 04:02:54;;;;;;;1.50;1.35;;;18.30;99.90;;;;;;5074308;28;20231;-54
2022/08/02 04:05:21;;;;;;;1.80;1.55;;;18.30;99.90;;;;;;5074087;28;20209;-55
2022/08/02 04:07:49;;;;;;;3.42;1.73;;;18.40;99.90;;;;;;5074295;28;20205;-55
2022/08/02 04:10:17;;;;;;;2.20;1.85;;;18.50;99.90;;;;;;5074185;28;20672;-55
2022/08/02 04:12:44;;;;;;;1.90;1.67;;;18.50;99.90;;;;;;5074181;28;20236;-55
2022/08/02 04:15:14;;;;;;;2.60;1.80;;;18.70;99.90;;;;;;5073749;28;20212;-57
2022/08/02 04:17:50;;;;;;;1.67;1.50;;;18.80;99.90;;;;;;5074167;28;20209;-55
2022/08/02 04:20:19;;;;;;;2.20;1.33;;;18.80;99.90;;;;;;5074058;28;20204;-55
2022/08/02 04:22:52;;;;;;;3.60;1.50;;;18.90;99.90;;;;;;5073817;28;20232;-55
2022/08/02 04:25:20;;;;;;;2.35;1.80;;;19.00;99.90;;;;;;5073877;28;20255;-55
2022/08/02 04:27:48;;;;;;;1.95;1.65;;;19.00;99.90;;;;;;5073949;28;20251;-55
2022/08/02 04:30:17;;;;;;;3.38;1.60;;;19.00;99.90;;;;;;5073846;28;20212;-55
2022/08/02 04:32:45;;;;;;;2.00;1.55;;;19.10;99.90;;;;;;5073615;28;20255;-56
2022/08/02 04:35:12;;;;;;;1.65;1.42;;;19.20;99.90;;;;;;5073477;28;20201;-55
2022/08/02 04:37:39;;;;;;;2.13;1.80;;;19.30;99.90;;;;;;5073872;28;20208;-55
2022/08/02 04:40:09;;;;;;;1.55;1.45;;;19.50;99.90;;;;;;5073959;28;20205;-55
2022/08/02 04:42:36;;;;;;;2.22;1.63;;;19.60;99.90;;;;;;5073465;28;20228;-54
2022/08/02 04:45:04;;;;;;;2.83;1.60;;;19.70;99.90;;;;;;5073281;28;20291;-56
2022/08/02 04:47:32;;;;;;;3.67;2.33;;;19.80;99.90;;;;;;5073160;28;20205;-54
2022/08/02 04:49:58;;;;;;;4.82;2.78;;;19.80;99.90;;;;;;5073446;28;20209;-54
2022/08/02 04:52:25;;;;;;;4.03;1.58;;;19.90;99.90;;;;;;5073497;28;20236;-55
2022/08/02 04:54:52;;;;;;;2.67;1.75;;;19.90;99.90;;;;;;5073570;28;20208;-55
2022/08/02 05:00:06;;;;;;;1.83;1.38;;;20.00;99.90;;;;;;5073338;28;20586;-55
2022/08/02 05:02:34;;;;;;;3.88;1.80;;;20.10;99.90;;;;;;5073258;28;20599;-56
2022/08/02 05:05:01;;;;;;;3.47;1.60;;;20.10;99.90;;;;;;5073188;28;20213;-56
2022/08/02 05:07:28;;;;;;;1.50;1.40;;;20.10;99.90;;;;;;5073299;28;20664;-55
2022/08/02 05:09:54;;;;;;;2.25;1.52;;;20.10;99.90;;;;;;5073116;28;20205;-55
2022/08/02 05:12:21;;;;;;;1.73;1.50;;;20.20;99.90;;;;;;5072861;28;20286;-56
2022/08/02 05:14:48;;;;;;;2.60;1.80;;;20.30;99.90;;;;;;5072899;28;20288;-56
2022/08/02 05:17:15;;;;;;;2.83;1.50;;;20.40;99.90;;;;;;5072761;28;20208;-56
2022/08/02 05:19:43;;;;;;;1.65;1.50;;;20.70;99.90;;;;;;5072881;28;20209;-56
2022/08/02 05:22:10;;;;;;;6.18;1.85;;;20.80;99.90;;;;;;5072755;28;20278;-57
2022/08/02 05:24:37;;;;;;;2.72;1.60;;;20.90;99.90;;;;;;5072621;28;20668;-55
2022/08/02 05:27:04;;;;;;;3.17;1.70;;;21.10;99.90;;;;;;5072391;28;20245;-55
2022/08/02 05:29:30;;;;;;;3.17;1.67;;;21.20;99.90;;;;;;5072474;28;20201;-55
2022/08/02 05:31:57;;;;;;;4.43;1.70;;;21.30;99.90;;;;;;5072531;28;20255;-54
2022/08/02 05:34:24;;;;;;;5.55;1.60;;;21.40;99.90;;;;;;5072529;28;20258;-55
2022/08/02 05:36:52;;;;;;;3.03;1.95;;;21.60;99.90;;;;;;5072065;28;20231;-55
2022/08/02 05:39:19;;;;;;;3.70;1.58;;;21.80;99.90;;;;;;5072319;28;20204;-54
2022/08/02 05:41:45;;;;;;;3.10;1.65;;;22.00;99.90;;;;;;5072044;28;20229;-54
2022/08/02 05:44:12;;;;;;;4.70;2.10;;;22.20;99.90;;;;;;5072412;28;20258;-55
2022/08/02 05:46:38;;;;;;;2.65;1.77;;;22.30;99.90;;;;;;5072079;28;20258;-55
2022/08/02 05:49:05;;;;;;;2.45;1.40;;;22.50;99.90;;;;;;5072152;28;20251;-54
2022/08/02 05:51:37;;;;;;;1.98;1.40;;;22.70;99.90;;;;;;5072380;28;20289;-55
2022/08/02 05:54:15;;;;;;;3.85;1.50;;;23.00;99.90;;;;;;5072412;28;20224;-55
2022/08/02 05:56:49;;;;;;;8.82;1.70;;;23.60;99.90;;;;;;5072098;28;20204;-55
2022/08/02 05:59:27;;;;;;;2.97;1.60;;;24.30;99.90;;;;;;5071793;28;20218;-55
2022/08/02 06:01:57;;;;;;;5.20;2.17;;;24.80;99.90;;;;;;5072151;28;20225;-55
2022/08/02 06:04:26;;;;;;;6.68;2.20;;;25.50;99.90;;;;;;5072093;28;20291;-55
2022/08/02 06:06:56;;;;;;;4.22;1.92;;;26.70;99.90;;;;;;5071624;28;20208;-55
2022/08/02 06:09:25;;;;;;;3.55;1.73;;;27.50;99.90;;;;;;5072240;28;20207;-56
2022/08/02 06:11:53;;;;;;;3.17;2.25;;;27.60;99.90;;;;;;5071953;28;20232;-55
2022/08/02 06:14:20;;;;;;;2.60;1.85;;;27.90;99.90;;;;;;5072015;28;20209;-55
2022/08/02 06:16:49;;;;;;;3.00;2.00;;;28.90;99.90;;;;;;5071594;28;20215;-56
2022/08/02 06:19:18;;;;;;;2.85;1.67;;;30.20;99.90;;;;;;5071933;28;20201;-55
2022/08/02 06:21:46;;;;;;;4.60;1.67;;;32.00;98.10;;;;;;5072150;28;20225;-56
2022/08/02 06:24:13;;;;;;;3.35;1.88;;;33.80;92.90;;;;;;5072119;28;20664;-55
2022/08/02 06:26:42;;;;;;;3.72;1.60;;;35.10;84.30;;;;;;5071635;28;20258;-53
2022/08/02 06:29:11;;;;;;;3.95;2.03;;;36.00;79.60;;;;;;5071989;28;20213;-53
2022/08/02 06:31:40;;;;;;;3.90;2.05;;;37.10;72.00;;;;;;5071654;28;20282;-55
2022/08/02 06:34:07;;;;;;;2.42;1.98;;;37.70;68.00;;;;;;5071898;28;20693;-53
2022/08/02 06:36:39;;;;;;;3.05;2.10;;;38.40;64.20;;;;;;5071779;28;20201;-54
2022/08/02 06:39:12;;;;;;;1.67;1.50;;;39.00;61.10;;;;;;5072188;28;20266;-53
2022/08/02 06:41:41;;;;;;;4.10;1.90;;;39.00;60.10;;;;;;5071905;28;20650;-55
2022/08/02 06:44:09;;;;;;;3.55;1.70;;;38.30;60.60;;;;;;5071966;28;20295;-53
2022/08/02 06:46:36;;;;;;;2.60;2.20;;;38.00;60.40;;;;;;5072159;28;20201;-54
2022/08/02 06:49:03;;;;;;;6.47;2.38;;;38.40;59.20;;;;;;5072436;28;20204;-53
2022/08/02 06:51:30;;;;;;;4.35;2.50;;;38.90;56.80;;;;;;5071439;28;20258;-54
2022/08/02 06:53:57;;;;;;;3.33;2.40;;;39.10;56.80;;;;;;5071438;28;20213;-53
2022/08/02 06:56:23;;;;;;;4.20;2.22;;;39.20;55.80;;;;;;5071503;28;20204;-54
2022/08/02 06:58:51;;;;;;;2.90;2.17;;;39.30;55.90;;;;;;5071317;28;20219;-53
2022/08/02 07:01:19;;;;;;;4.45;2.58;;;39.50;55.20;;;;;;5071548;28;20228;-53
2022/08/02 07:03:46;;;;;;;2.88;2.08;;;39.70;54.80;;;;;;5071537;28;20234;-54
2022/08/02 07:06:12;;;;;;;2.95;2.20;;;40.20;54.00;;;;;;5071362;28;20625;-55
2022/08/02 07:08:39;;;;;;;3.75;2.10;;;40.70;52.30;;;;;;5071520;28;20204;-54
2022/08/02 07:11:06;;;;;;;4.90;2.17;;;40.60;52.30;;;;;;5071194;28;20235;-55
2022/08/02 07:13:33;;;;;;;4.30;2.20;;;39.90;52.70;;;;;;5064633;28;20647;-55
2022/08/02 07:16:02;;;;;;;3.42;2.30;;;39.90;53.00;;;;;;5057501;28;20686;-58
2022/08/02 07:18:29;;;;;;;3.25;2.30;;;40.50;52.60;;;;;;5074508;28;20205;-57
2022/08/02 07:20:55;;;;;;;4.32;2.47;;;41.10;51.00;;;;;;5074029;28;20204;-54
2022/08/02 07:23:22;;;;;;;2.75;2.40;;;41.30;50.00;;;;;;5073717;28;20658;-56
2022/08/02 07:25:49;;;;;;;4.53;2.60;;;42.00;48.60;;;;;;5073065;28;20269;-55
2022/08/02 07:28:16;;;;;;;3.50;2.65;;;42.60;47.70;;;;;;5073873;28;20293;-60
2022/08/02 07:30:43;;;;;;;5.15;2.70;;;43.30;47.00;;;;;;5073915;28;20207;-59
2022/08/02 07:33:11;;;;;;;3.70;2.50;;;43.60;45.90;;;;;;5073663;28;20285;-56
2022/08/02 07:35:38;;;;;;;4.18;2.35;;;43.90;45.80;;;;;;5073557;28;20235;-58
2022/08/02 07:38:05;;;;;;;4.38;2.70;;;44.40;44.90;;;;;;5073389;28;20214;-59
2022/08/02 07:40:31;;;;;;;3.58;2.80;;;44.10;44.60;;;;;;5073498;28;20204;-56
2022/08/02 07:42:58;;;;;;;2.92;2.30;;;43.20;45.20;;;;;;5073127;28;20282;-57
2022/08/02 07:45:26;;;;;;;4.63;2.70;;;41.90;47.10;;;;;;5072730;28;20237;-58
2022/08/02 07:47:55;;;;;;;5.10;2.67;;;40.90;48.40;;;;;;5060812;28;20208;-63
2022/08/02 07:50:23;;;;;;;4.53;3.10;;;40.90;48.50;;;;;;5052424;28;20503;-56
2022/08/02 07:52:50;;;;;;;3.03;2.47;;;41.30;47.70;;;;;;5053338;28;20225;-58
2022/08/02 07:55:17;;;;;;;3.03;2.72;;;40.60;48.60;;;;;;5052987;28;20208;-57
2022/08/02 07:57:45;;;;;;;4.07;2.85;;;40.80;48.20;;;;;;5053534;28;20208;-58
2022/08/02 08:00:12;;;;;;;4.88;2.60;;;40.80;47.80;;;;;;5053334;28;20208;-58
2022/08/02 08:02:39;;;;;;;6.07;3.75;;;40.00;49.20;;;;;;5053115;28;20227;-62
2022/08/02 08:05:07;;;;;;;4.90;2.80;;;39.30;50.50;;;;;;5053501;28;20259;-58
2022/08/02 08:07:35;;;;;;;5.20;2.50;;;39.10;51.20;;;;;;5054203;28;20625;-59
2022/08/02 08:10:03;;;;;;;4.88;2.90;;;39.10;51.10;;;;;;5054054;28;20664;-58
2022/08/02 08:12:29;;;;;;;3.90;2.33;;;39.60;49.90;;;;;;5054248;28;20239;-59
2022/08/02 08:14:56;;;;;;;3.22;2.55;;;39.80;50.00;;;;;;5053953;28;20205;-59
2022/08/02 08:17:23;;;;;;;4.82;2.35;;;40.40;49.10;;;;;;5053747;28;20201;-59
2022/08/02 08:19:49;;;;;;;3.90;2.40;;;40.80;48.60;;;;;;5053939;28;20213;-59
2022/08/02 08:22:16;;;;;;;3.47;2.40;;;41.60;47.40;;;;;;5053307;28;20236;-58
2022/08/02 08:24:44;;;;;;;4.72;2.95;;;42.30;45.20;;;;;;5053719;28;20259;-58
2022/08/02 08:27:13;;;;;;;5.85;2.60;;;42.30;45.50;;;;;;5053735;28;20291;-59
2022/08/02 08:29:40;;;;;;;3.40;2.70;;;41.80;46.60;;;;;;5053828;28;20212;-58
2022/08/02 08:32:07;;;;;;;3.90;2.55;;;42.20;46.00;;;;;;5053780;28;20312;-59
2022/08/02 08:34:34;;;;;;;2.95;2.58;;;42.60;45.30;;;;;;5053585;28;20768;-59
2022/08/02 08:37:02;;;;;;;4.63;2.95;;;42.50;45.40;;;;;;5053220;28;20219;-58
2022/08/02 08:39:28;;;;;;;2.90;2.70;;;42.30;45.90;;;;;;5053718;28;20209;-58
2022/08/02 08:41:57;;;;;;;3.42;2.70;;;42.30;45.50;;;;;;5053387;28;20318;-58
2022/08/02 08:44:25;;;;;;;5.05;2.63;;;41.80;46.10;;;;;;5053479;28;20266;-58
2022/08/02 08:46:54;;;;;;;3.40;2.80;;;40.90;47.20;;;;;;5053199;28;20241;-60
2022/08/02 08:49:27;;;;;;;4.63;3.15;;;39.60;48.50;;;;;;5053383;28;20205;-58
2022/08/02 08:51:55;;;;;;;7.95;3.28;;;38.20;50.20;;;;;;5053515;28;20307;-58
2022/08/02 08:54:24;;;;;;;7.53;3.38;;;36.20;53.30;;;;;;5053231;28;20786;-58
2022/08/02 08:56:52;;;;;;;5.30;3.50;;;34.90;55.40;;;;;;5052993;28;20296;-58
2022/08/02 08:59:20;;;;;;;3.88;3.00;;;33.80;57.40;;;;;;5053318;28;20285;-58
2022/08/02 09:01:48;;;;;;;6.07;2.85;;;32.60;59.90;;;;;;5053039;28;20229;-58
2022/08/02 09:04:14;;;;;;;6.18;2.80;;;31.70;61.70;;;;;;5053270;28;20293;-58
2022/08/02 09:06:41;;;;;;;4.55;3.47;;;31.20;62.30;;;;;;5052881;28;20229;-58
2022/08/02 09:09:08;;;;;;;3.70;2.70;;;30.90;63.80;;;;;;5053169;28;20263;-62
2022/08/02 09:11:35;;;;;;;3.80;2.92;;;30.70;65.30;;;;;;5052770;28;20693;-64
2022/08/02 09:14:03;;;;;;;3.72;3.28;;;30.50;66.00;;;;;;5052728;28;20257;-59
2022/08/02 09:16:34;;;;;;;5.53;3.60;;;30.30;66.60;;;;;;5052602;28;20210;-58
2022/08/02 09:19:01;;;;;;;4.05;3.00;;;30.00;67.80;;;;;;5052890;28;20673;-59
2022/08/02 09:21:36;;;;;;;3.45;3.03;;;29.80;68.80;;;;;;5052822;28;20260;-59
2022/08/02 09:24:03;;;;;;;7.13;4.38;;;29.70;69.60;;;;;;5052745;28;20210;-59
2022/08/02 09:26:30;;;;;;;4.80;2.97;;;29.70;70.00;;;;;;5052349;28;20677;-58
2022/08/02 09:29:01;;;;;;;3.35;3.05;;;29.70;69.70;;;;;;5052392;28;20633;-59
2022/08/02 09:31:29;;;;;;;5.88;3.33;;;29.60;69.90;;;;;;5052673;28;20235;-58
2022/08/02 09:33:59;;;;;;;4.85;2.83;;;29.50;70.60;;;;;;5052056;28;20709;-58
2022/08/02 09:36:28;;;;;;;4.57;3.30;;;29.50;70.30;;;;;;5051868;28;20271;-59
2022/08/02 09:38:57;;;;;;;4.50;2.88;;;29.50;70.70;;;;;;5052376;28;20591;-58
2022/08/02 09:41:26;;;;;;;3.80;3.15;;;29.50;70.60;;;;;;5053259;28;20290;-60
2022/08/02 09:43:53;;;;;;;4.60;3.20;;;29.50;70.70;;;;;;5069030;28;20823;-61
2022/08/02 09:46:22;;;;;;;5.40;3.25;;;29.50;71.50;;;;;;5051082;28;20388;-59
2022/08/02 09:48:51;;;;;;;4.85;3.53;;;29.50;71.60;;;;;;5051303;28;20213;-60
2022/08/02 09:51:20;;;;;;;4.95;3.30;;;29.50;72.10;;;;;;5050732;28;20241;-60
2022/08/02 09:53:50;;;;;;;4.38;3.03;;;29.50;72.00;;;;;;5050513;28;20294;-59
2022/08/02 09:56:18;;;;;;;4.00;3.28;;;29.60;72.20;;;;;;5050487;28;20201;-60
2022/08/02 09:58:45;;;;;;;5.68;3.28;;;29.60;72.20;;;;;;5051053;28;20205;-60
2022/08/02 10:01:12;;;;;;;8.88;3.20;;;29.60;72.20;;;;;;5051011;28;20274;-58
2022/08/02 10:03:54;;;;;;;3.92;2.67;;;29.60;73.00;;;;;;5050691;28;20209;-60
2022/08/02 10:06:22;;;;;;;6.63;3.38;;;29.70;72.20;;;;;;5050231;28;20292;-60
2022/08/02 10:08:50;;;;;;;5.22;3.10;;;29.70;72.30;;;;;;5051177;28;20206;-59
2022/08/02 10:11:17;;;;;;;4.28;3.10;;;29.80;72.30;;;;;;5051450;28;20246;-59
2022/08/02 10:13:44;;;;;;;5.22;2.92;;;30.00;71.70;;;;;;5050887;28;20225;-60
2022/08/02 10:16:12;;;;;;;3.50;3.15;;;30.20;71.30;;;;;;5050460;28;20213;-61
2022/08/02 10:18:38;;;;;;;4.70;3.05;;;30.30;70.50;;;;;;5050974;28;20206;-61
2022/08/02 10:21:10;;;;;;;5.20;2.75;;;30.10;71.30;;;;;;5050961;28;20216;-63
2022/08/02 10:23:39;;;;;;;3.03;2.83;;;30.00;71.40;;;;;;5051045;28;20205;-59
2022/08/02 10:26:08;;;;;;;3.30;3.00;;;30.20;71.10;;;;;;5050499;28;20209;-61
2022/08/02 10:28:35;;;;;;;3.65;2.95;;;30.30;70.50;;;;;;5050659;28;20205;-63
2022/08/02 10:31:05;;;;;;;3.78;3.00;;;30.30;70.60;;;;;;5063645;28;20205;-55
2022/08/02 10:33:35;;;;;;;4.70;2.80;;;30.50;70.50;;;;;;5071685;28;20307;-56
2022/08/02 10:36:04;;;;;;;3.00;2.70;;;30.80;69.10;;;;;;5071825;28;20200;-56
2022/08/02 10:38:31;;;;;;;4.43;3.00;;;30.90;68.70;;;;;;5071761;28;20204;-56
2022/08/02 10:40:59;;;;;;;3.85;3.20;;;31.00;68.50;;;;;;5071842;28;20273;-56
2022/08/02 10:43:44;;;;;;;4.93;3.25;;;31.00;67.80;;;;;;5071664;28;20700;-56
2022/08/02 10:46:32;;;;;;;4.05;2.92;;;30.90;68.70;;;;;;5072686;28;20204;-55
2022/08/02 10:49:06;;;;;;;2.92;2.63;;;30.70;68.80;;;;;;5070946;28;20636;-56
2022/08/02 10:52:04;;;;;;;4.35;2.70;;;30.30;69.10;;;;;;5075741;28;20231;-57
2022/08/02 10:54:34;;;;;;;7.43;3.25;;;29.90;70.40;;;;;;5075577;28;20795;-56
2022/08/02 10:57:03;;;;;;;7.95;3.25;;;29.60;71.50;;;;;;5075618;28;20211;-56
2022/08/02 10:59:32;;;;;;;4.85;3.00;;;29.60;71.30;;;;;;5075807;28;20213;-56
2022/08/02 11:02:03;;;;;;;3.17;2.42;;;29.60;71.10;;;;;;5075412;28;20595;-56
2022/08/02 11:04:31;;;;;;;4.78;2.72;;;29.50;71.50;;;;;;5075701;28;20443;-56
2022/08/02 11:07:09;;;;;;;2.83;2.60;;;29.40;71.50;;;;;;5075236;28;20296;-55
2022/08/02 11:09:36;;;;;;;2.60;2.40;;;29.40;71.10;;;;;;5075685;28;20575;-55
2022/08/02 11:12:06;;;;;;;4.50;2.72;;;29.50;70.60;;;;;;5075503;28;20228;-55
2022/08/02 11:14:35;;;;;;;3.30;2.50;;;29.50;70.40;;;;;;5075186;28;20225;-57
2022/08/02 11:17:10;;;;;;;3.17;2.35;;;29.70;70.00;;;;;;5074857;28;20590;-55
2022/08/02 11:20:09;;;;;;;4.35;2.50;;;29.90;69.30;;;;;;5075279;28;20231;-57
2022/08/02 11:22:36;;;;;;;3.85;2.60;;;30.00;68.30;;;;;;5074780;28;20251;-59
2022/08/02 11:25:30;;;;;;;2.58;2.30;;;29.80;68.20;;;;;;5074958;28;20205;-58
2022/08/02 11:27:59;;;;;;;3.08;2.50;;;29.70;68.90;;;;;;5075054;28;20201;-55
2022/08/02 11:30:27;;;;;;;5.85;2.55;;;29.70;69.30;;;;;;5075082;28;20208;-57
2022/08/02 11:32:56;;;;;;;2.20;2.00;;;29.70;69.40;;;;;;5059651;28;20796;-58
2022/08/02 11:35:31;;;;;;;3.97;2.08;;;29.70;68.80;;;;;;5069348;28;20212;-58
2022/08/02 11:37:58;;;;;;;3.67;2.50;;;29.90;67.90;;;;;;5073363;28;20571;-57
2022/08/02 11:40:36;;;;;;;4.18;2.30;;;30.10;66.20;;;;;;5073806;28;20270;-57
2022/08/02 11:43:04;;;;;;;6.28;2.22;;;30.20;66.50;;;;;;5073355;28;20244;-57
2022/08/02 11:45:32;;;;;;;2.67;2.05;;;30.40;64.90;;;;;;5073840;28;20213;-57
2022/08/02 11:47:58;;;;;;;3.95;1.70;;;30.60;64.20;;;;;;5073390;28;20212;-55
2022/08/02 11:50:25;;;;;;;2.10;1.90;;;30.80;63.00;;;;;;5073542;28;20205;-57
2022/08/02 11:52:54;;;;;;;3.00;1.83;;;31.00;61.60;;;;;;5073383;28;20229;-60
2022/08/02 11:55:27;;;;;;;3.00;2.03;;;30.90;62.80;;;;;;5073282;28;20661;-59
2022/08/02 11:57:58;;;;;;;2.92;1.90;;;30.80;63.20;;;;;;5072429;28;20216;-61
2022/08/02 12:00:26;;;;;;;6.82;2.20;;;30.90;63.00;;;;;;5073900;28;20262;-63
2022/08/02 12:02:53;;;;;;;7.32;2.80;;;31.10;63.00;;;;;;5073708;28;20252;-63
2022/08/02 12:05:22;;;;;;;3.30;1.90;;;31.30;61.50;;;;;;5073130;28;20723;-62
2022/08/02 12:07:51;;;;;;;2.47;1.88;;;31.40;61.50;;;;;;5073019;28;20274;-62
2022/08/02 12:10:19;;;;;;;3.20;2.08;;;31.60;61.60;;;;;;5073673;28;20200;-64
2022/08/02 12:12:50;;;;;;;7.07;2.05;;;31.70;60.90;;;;;;5073313;28;20221;-64
2022/08/02 12:15:31;;;;;;;2.30;1.77;;;31.70;61.00;;;;;;5072894;28;20229;-63
2022/08/02 12:20:43;;;;;;;2.40;2.20;;;31.90;58.40;;;;;;5073079;28;20253;-63
2022/08/02 12:23:09;;;;;;;1.77;1.50;;;31.90;58.10;;;;;;5073483;28;20243;-62
2022/08/02 12:25:37;;;;;;;2.92;2.00;;;31.90;58.40;;;;;;5073791;28;20212;-56
2022/08/02 12:28:15;;;;;;;4.07;1.60;;;31.90;58.40;;;;;;5073383;28;20209;-59
2022/08/02 12:30:57;;;;;;;1.73;1.63;;;32.00;57.60;;;;;;5073993;28;20205;-58
2022/08/02 12:33:26;;;;;;;1.67;1.38;;;32.10;57.40;;;;;;5073674;28;20299;-59
2022/08/02 12:35:53;;;;;;;1.83;1.73;;;32.20;56.50;;;;;;5073555;28;20259;-58
2022/08/02 12:38:20;;;;;;;2.30;1.50;;;32.30;57.10;;;;;;5073567;28;20337;-59
2022/08/02 12:40:47;;;;;;;3.20;1.80;;;32.30;56.60;;;;;;5073503;28;20212;-59
2022/08/02 12:43:19;;;;;;;2.42;1.60;;;32.30;56.20;;;;;;5073561;28;20229;-59
2022/08/02 12:45:48;;;;;;;2.60;1.90;;;32.10;56.60;;;;;;5073297;28;20613;-60
2022/08/02 12:48:29;;;;;;;2.15;1.73;;;31.90;57.10;;;;;;5073558;28;20201;-59
2022/08/02 12:50:56;;;;;;;5.53;1.88;;;31.90;57.30;;;;;;5073168;28;20291;-61
2022/08/02 12:53:31;;;;;;;1.90;1.70;;;31.80;57.40;;;;;;5073086;28;20225;-59
2022/08/02 12:56:00;;;;;;;3.42;2.95;;;31.50;57.90;;;;;;5073004;28;20244;-59
2022/08/02 12:58:26;;;;;;;3.40;1.92;;;31.30;58.40;;;;;;5073322;28;20262;-59
2022/08/02 13:00:54;;;;;;;5.13;1.60;;;31.30;57.20;;;;;;5073379;28;20215;-59
2022/08/02 13:03:23;;;;;;;3.15;1.70;;;31.40;57.00;;;;;;5072966;28;20221;-59
2022/08/02 13:05:50;;;;;;;5.03;1.92;;;31.50;57.00;;;;;;5072756;28;20600;-59